Time;durP1;ratioP1;P1;durP2;ratioP2;P2;SDS_P1;SDS_P2;PMS_P1;PMS_P2;Temp;Humidity;BMP_temperature;BMP_pressure;BME280_temperature;BME280_humidity;BME280_pressure;Samples;Min_cycle;Max_cycle;Signal;HPM_P1;HPM_P2
2022/11/12 00:02:04;;;;;;;34.42;25.55;;;;;;;8.66;66.03;103041.31;5055642;28;20123;-81
2022/11/12 00:04:29;;;;;;;33.53;26.65;;;;;;;8.64;67.03;103043.38;5072805;28;20029;-80
2022/11/12 00:06:54;;;;;;;33.17;27.00;;;;;;;8.62;66.25;103051.03;5072984;28;20110;-80
2022/11/12 00:09:19;;;;;;;33.97;26.33;;;;;;;8.59;66.36;103057.78;5034924;28;20453;-80
2022/11/12 00:11:45;;;;;;;30.13;24.70;;;;;;;8.56;66.75;103058.16;5032817;28;20052;-80
2022/11/12 00:14:16;;;;;;;31.13;25.42;;;;;;;8.57;66.89;103065.44;5033911;28;20452;-80
2022/11/12 00:16:44;;;;;;;29.85;23.35;;;;;;;8.52;66.02;103067.88;5031953;28;20048;-79
2022/11/12 00:19:09;;;;;;;30.05;23.75;;;;;;;8.52;66.48;103062.34;5066188;28;20036;-79
2022/11/12 00:21:37;;;;;;;29.30;22.95;;;;;;;8.50;66.60;103064.47;5037686;28;20029;-79
2022/11/12 00:24:03;;;;;;;31.00;21.63;;;;;;;8.47;66.17;103062.06;5032326;28;20055;-80
2022/11/12 00:26:28;;;;;;;29.45;21.58;;;;;;;8.45;66.49;103066.03;5034864;28;20477;-79
2022/11/12 00:28:54;;;;;;;31.15;23.52;;;;;;;8.42;66.83;103071.97;5032511;28;20017;-79
2022/11/12 00:31:19;;;;;;;29.35;21.48;;;;;;;8.42;66.52;103078.38;5031995;28;20049;-79
2022/11/12 00:33:45;;;;;;;28.40;21.55;;;;;;;8.38;67.20;103065.09;5047761;28;20090;-79
2022/11/12 00:36:10;;;;;;;27.63;23.02;;;;;;;8.40;67.18;103072.13;5052961;28;20040;-80
2022/11/12 00:38:35;;;;;;;27.60;22.70;;;;;;;8.39;66.64;103075.97;5051792;28;20025;-80
2022/11/12 00:41:01;;;;;;;28.77;22.55;;;;;;;8.36;66.41;103074.38;5051885;28;20037;-79
2022/11/12 00:43:27;;;;;;;28.67;21.58;;;;;;;8.37;66.64;103075.31;5052540;28;20515;-79
2022/11/12 00:45:53;;;;;;;26.58;21.73;;;;;;;8.34;66.85;103070.09;5051331;28;20106;-80
2022/11/12 00:48:18;;;;;;;26.73;20.63;;;;;;;8.31;66.16;103064.91;5066440;28;20388;-80
2022/11/12 00:50:43;;;;;;;23.73;19.58;;;;;;;8.31;65.99;103064.91;5072349;28;20024;-80
2022/11/12 00:53:09;;;;;;;27.45;20.92;;;;;;;8.30;66.50;103063.19;5072113;28;20094;-79
2022/11/12 00:55:34;;;;;;;29.23;20.65;;;;;;;8.29;66.43;103061.47;5045908;28;20029;-80
2022/11/12 00:57:59;;;;;;;25.65;20.15;;;;;;;8.28;66.83;103065.28;5034066;28;20028;-80
2022/11/12 01:00:25;;;;;;;25.92;20.27;;;;;;;8.25;66.73;103057.34;5031382;28;20040;-79
2022/11/12 01:02:51;;;;;;;27.40;20.02;;;;;;;8.21;66.84;103065.16;5058749;28;20024;-80
2022/11/12 01:05:16;;;;;;;24.98;19.33;;;;;;;8.19;66.42;103061.72;5069472;28;20047;-79
2022/11/12 01:07:42;;;;;;;25.10;19.55;;;;;;;8.16;66.54;103067.59;5052242;28;20444;-80
2022/11/12 01:10:10;;;;;;;26.73;20.88;;;;;;;8.16;66.60;103058.44;5052413;28;20045;-80
2022/11/12 01:12:36;;;;;;;26.48;20.15;;;;;;;8.18;65.93;103061.91;5050540;28;20047;-79
2022/11/12 01:15:03;;;;;;;27.58;20.48;;;;;;;8.12;66.19;103053.28;5051570;28;20021;-79
2022/11/12 01:17:30;;;;;;;29.08;20.95;;;;;;;8.20;66.42;103057.03;5057583;28;20035;-79
2022/11/12 01:19:55;;;;;;;26.73;21.75;;;;;;;8.12;66.30;103056.03;5068364;28;20033;-80
2022/11/12 01:22:21;;;;;;;26.40;20.38;;;;;;;8.11;66.28;103053.47;5031604;28;20030;-80
2022/11/12 01:24:46;;;;;;;26.52;20.83;;;;;;;8.10;66.22;103062.81;5031122;28;20017;-80
2022/11/12 01:27:11;;;;;;;26.48;20.20;;;;;;;8.10;66.12;103057.28;5041700;28;20033;-79
2022/11/12 01:29:36;;;;;;;24.73;20.08;;;;;;;8.04;66.91;103052.47;5053559;28;20031;-79
2022/11/12 01:32:02;;;;;;;25.35;19.58;;;;;;;8.03;66.69;103054.38;5063244;28;20059;-79
2022/11/12 01:34:29;;;;;;;23.95;20.25;;;;;;;8.01;66.50;103053.69;5035133;28;20036;-79
2022/11/12 01:36:55;;;;;;;21.58;19.25;;;;;;;8.01;66.63;103055.59;5036423;28;20092;-81
2022/11/12 01:39:20;;;;;;;24.27;20.00;;;;;;;8.02;66.29;103058.19;5038350;28;20025;-80
2022/11/12 01:41:45;;;;;;;26.38;20.38;;;;;;;7.97;66.84;103052.34;5035699;28;20124;-80
2022/11/12 01:44:20;;;;;;;21.92;19.23;;;;;;;7.97;66.64;103052.34;5035994;28;20391;-79
2022/11/12 01:47:09;;;;;;;23.92;19.75;;;;;;;8.00;65.99;103048.34;5056882;28;20123;-80
2022/11/12 01:49:51;;;;;;;26.08;19.33;;;;;;;7.97;66.50;103035.75;5065238;28;20441;-79
2022/11/12 01:52:23;;;;;;;28.20;20.25;;;;;;;7.91;65.71;103050.31;5035391;28;20033;-80
2022/11/12 01:54:52;;;;;;;22.15;19.20;;;;;;;7.89;66.43;103049.63;5035416;28;20424;-79
2022/11/12 01:57:24;;;;;;;24.63;19.40;;;;;;;7.85;66.20;103042.72;5034758;28;20488;-79
2022/11/12 01:59:53;;;;;;;25.05;19.60;;;;;;;7.84;66.73;103047.41;5035939;28;20119;-79
2022/11/12 02:02:18;;;;;;;22.13;19.58;;;;;;;7.84;66.23;103041.88;5066651;28;20107;-79
2022/11/12 02:04:45;;;;;;;24.70;18.35;;;;;;;7.82;66.96;103043.97;5050385;28;20523;-79
2022/11/12 02:07:11;;;;;;;23.08;18.65;;;;;;;7.82;66.61;103040.31;5036802;28;20061;-79
2022/11/12 02:09:36;;;;;;;23.95;19.40;;;;;;;7.75;66.43;103047.66;5033663;28;20061;-80
2022/11/12 02:13:56;;;;;;;21.13;18.10;;;;;;;7.77;66.61;103045.53;5037006;28;20063;-79
2022/11/12 02:14:53;;;;;;;23.30;18.33;;;;;;;7.76;66.19;103035.53;5036255;28;20384;-80
2022/11/12 02:17:19;;;;;;;24.80;19.05;;;;;;;7.74;65.17;103035.72;5072980;28;20103;-79
2022/11/12 02:19:46;;;;;;;22.60;18.58;;;;;;;7.71;66.18;103046.28;5076247;28;20471;-80
2022/11/12 02:22:11;;;;;;;21.85;18.05;;;;;;;7.66;66.65;103038.50;5069670;28;20039;-80
2022/11/12 02:24:37;;;;;;;23.83;18.38;;;;;;;7.64;66.20;103040.59;5052916;28;20025;-79
2022/11/12 02:27:04;;;;;;;22.88;18.15;;;;;;;7.62;65.76;103043.56;5049191;28;20519;-79
2022/11/12 02:29:29;;;;;;;21.90;18.27;;;;;;;7.58;65.81;103039.44;5062311;28;20476;-80
2022/11/12 02:31:54;;;;;;;22.00;16.85;;;;;;;7.59;65.85;103043.91;5051034;28;20032;-79
2022/11/12 02:34:20;;;;;;;18.10;16.10;;;;;;;7.58;65.73;103046.84;5053487;28;20758;-79
2022/11/12 02:36:45;;;;;;;21.50;17.30;;;;;;;7.52;65.72;103037.38;5040226;28;20122;-80
2022/11/12 02:39:10;;;;;;;19.65;16.48;;;;;;;7.51;65.21;103032.91;5043225;28;20496;-79
2022/11/12 02:41:35;;;;;;;17.90;15.43;;;;;;;7.52;65.88;103042.91;5042610;28;20036;-80
2022/11/12 02:44:03;;;;;;;20.02;16.50;;;;;;;7.53;65.21;103032.72;5057166;28;20556;-79
2022/11/12 02:46:28;;;;;;;19.73;16.40;;;;;;;7.48;65.10;103036.00;5066421;28;20060;-79
2022/11/12 02:48:57;;;;;;;18.55;16.42;;;;;;;7.46;65.59;103029.78;5071921;28;20016;-80
2022/11/12 02:51:22;;;;;;;18.02;16.08;;;;;;;7.44;65.55;103028.28;5066793;28;20040;-80
2022/11/12 02:53:47;;;;;;;17.73;15.82;;;;;;;7.43;65.54;103026.53;5065250;28;20021;-80
2022/11/12 02:56:12;;;;;;;18.88;15.95;;;;;;;7.43;66.42;103018.22;5058934;28;20076;-80
2022/11/12 02:58:38;;;;;;;18.70;16.55;;;;;;;7.38;65.53;103022.41;5054627;28;20043;-79
2022/11/12 03:01:03;;;;;;;24.00;15.68;;;;;;;7.40;66.25;103010.34;5051308;28;20037;-79
2022/11/12 03:03:28;;;;;;;19.02;15.98;;;;;;;7.37;65.46;103011.53;5044278;28;20037;-79
2022/11/12 03:05:59;;;;;;;19.20;15.27;;;;;;;7.33;65.97;103015.69;5033847;28;20124;-79
2022/11/12 03:08:25;;;;;;;21.35;16.08;;;;;;;7.33;65.64;103015.69;5049203;28;20052;-79
2022/11/12 03:10:50;;;;;;;18.05;15.43;;;;;;;7.32;66.05;103014.00;5036219;28;20032;-80
2022/11/12 03:13:16;;;;;;;19.15;15.10;;;;;;;7.28;65.99;103023.66;5059326;28;20037;-79
2022/11/12 03:15:41;;;;;;;18.02;14.52;;;;;;;7.28;65.44;103021.75;5034955;28;20033;-79
2022/11/12 03:18:06;;;;;;;16.80;15.02;;;;;;;7.29;65.66;103020.72;5033590;28;20468;-80
2022/11/12 03:20:33;;;;;;;17.65;14.65;;;;;;;7.32;65.85;103019.50;5035182;28;20075;-77
2022/11/12 03:23:07;;;;;;;15.65;13.98;;;;;;;7.28;65.84;103029.19;5049212;28;20028;-79
2022/11/12 03:25:32;;;;;;;17.17;15.05;;;;;;;7.25;65.83;103030.41;5033634;28;20549;-78
2022/11/12 03:28:04;;;;;;;16.85;15.10;;;;;;;7.22;65.53;103032.66;5046888;28;20029;-77
2022/11/12 03:30:33;;;;;;;17.90;14.93;;;;;;;7.19;66.21;103036.66;5036973;28;20388;-78
2022/11/12 03:32:58;;;;;;;17.20;15.40;;;;;;;7.19;66.33;103035.75;5039745;28;20368;-79
2022/11/12 03:35:25;;;;;;;17.13;14.45;;;;;;;7.20;65.97;103032.00;5041774;28;20030;-78
2022/11/12 03:37:51;;;;;;;19.48;15.15;;;;;;;7.17;65.74;103033.19;5032851;28;20052;-79
2022/11/12 03:40:17;;;;;;;17.05;14.00;;;;;;;7.19;65.66;103031.13;5032077;28;20029;-78
2022/11/12 03:42:46;;;;;;;18.08;14.00;;;;;;;7.16;65.98;103044.44;5053124;28;20488;-78
2022/11/12 03:45:13;;;;;;;15.68;14.07;;;;;;;7.14;65.86;103039.91;5032739;28;20128;-80
2022/11/12 03:47:43;;;;;;;17.45;13.65;;;;;;;7.15;66.02;103040.78;5031185;28;20099;-80
2022/11/12 03:50:10;;;;;;;16.67;13.88;;;;;;;7.12;66.46;103039.25;5047024;28;20124;-80
2022/11/12 03:52:35;;;;;;;14.88;13.00;;;;;;;7.11;66.21;103043.06;5031530;28;20033;-80
2022/11/12 03:55:03;;;;;;;15.65;13.00;;;;;;;7.13;66.21;103035.44;5030657;28;20152;-80
2022/11/12 03:57:28;;;;;;;15.40;13.00;;;;;;;7.14;66.28;103028.88;5052764;28;20021;-79
2022/11/12 03:59:54;;;;;;;14.50;12.88;;;;;;;7.09;65.90;103039.59;5043957;28;20044;-79
2022/11/12 04:02:19;;;;;;;17.00;13.05;;;;;;;7.09;66.08;103039.59;5045442;28;20021;-80
2022/11/12 04:10:12;;;;;;;14.90;12.77;;;;;;;7.10;65.95;103030.28;5032019;28;20048;-80
2022/11/12 04:15:21;;;;;;;14.18;11.75;;;;;;;7.08;66.68;103021.31;5051635;28;20043;-80
2022/11/12 04:23:14;;;;;;;17.75;12.13;;;;;;;7.05;66.91;103010.63;5050057;28;20488;-79
2022/11/12 04:28:24;;;;;;;11.88;10.55;;;;;;;7.04;66.46;103008.91;5032242;28;20044;-78
2022/11/12 04:30:49;;;;;;;16.40;12.55;;;;;;;7.00;66.70;103002.00;5031271;28;20025;-79
2022/11/12 04:33:14;;;;;;;15.18;11.68;;;;;;;7.05;66.39;102999.56;5033015;28;20052;-78
2022/11/12 04:35:40;;;;;;;13.38;11.43;;;;;;;7.05;66.57;103004.25;5034933;28;20071;-79
2022/11/12 04:38:08;;;;;;;15.93;12.25;;;;;;;6.99;66.99;103003.03;5070518;28;20511;-79
2022/11/12 04:46:03;;;;;;;14.82;11.05;;;;;;;6.94;66.64;103015.66;5071484;28;20038;-80
2022/11/12 04:48:28;;;;;;;14.23;12.00;;;;;;;6.94;66.02;103012.88;5072463;28;20024;-80
2022/11/12 04:52:03;;;;;;;13.70;11.05;;;;;;;6.90;66.71;103009.63;5051814;28;20774;-80
2022/11/12 04:53:48;;;;;;;15.00;12.10;;;;;;;6.90;66.86;103009.63;5052172;28;20029;-80
2022/11/12 04:56:13;;;;;;;16.30;11.23;;;;;;;6.87;66.69;103005.31;5056961;28;20173;-80
2022/11/12 04:58:38;;;;;;;13.18;11.27;;;;;;;6.88;65.90;102998.75;5030743;28;20060;-77
2022/11/12 05:01:03;;;;;;;14.82;11.40;;;;;;;6.86;66.45;103003.59;5047773;28;20024;-79
2022/11/12 05:03:29;;;;;;;13.93;11.60;;;;;;;6.85;66.25;102992.72;5049276;28;20064;-78
2022/11/12 05:06:49;;;;;;;14.25;11.88;;;;;;;6.82;66.59;102999.47;5069322;28;20096;-78
2022/11/12 05:08:49;;;;;;;15.20;11.70;;;;;;;6.82;66.62;102998.59;5071385;28;20040;-79
2022/11/12 05:11:14;;;;;;;14.77;11.38;;;;;;;6.80;66.66;102986.88;5070758;28;20078;-78
2022/11/12 05:13:40;;;;;;;13.77;11.32;;;;;;;6.78;66.09;102988.94;5061079;28;20477;-79
2022/11/12 05:16:05;;;;;;;14.93;11.55;;;;;;;6.76;66.73;102985.50;5032341;28;20029;-79
2022/11/12 05:18:30;;;;;;;16.15;11.70;;;;;;;6.73;66.02;102989.47;5033398;28;20071;-79
2022/11/12 05:20:56;;;;;;;18.13;11.52;;;;;;;6.75;66.46;102986.53;5051093;28;20468;-79
2022/11/12 05:23:21;;;;;;;14.77;11.90;;;;;;;6.75;66.67;102981.00;5051814;28;20041;-79
2022/11/12 05:25:46;;;;;;;12.48;11.10;;;;;;;6.71;66.26;102974.13;5050476;28;20029;-78
2022/11/12 05:28:11;;;;;;;11.68;10.45;;;;;;;6.71;66.79;102979.63;5056509;28;20119;-78
2022/11/12 05:30:37;;;;;;;13.88;10.05;;;;;;;6.72;66.45;102984.13;5054141;28;20040;-78
2022/11/12 05:33:02;;;;;;;12.80;11.18;;;;;;;6.68;66.67;102988.25;5058066;28;20048;-79
2022/11/12 05:35:27;;;;;;;12.25;10.98;;;;;;;6.67;66.25;102975.50;5056617;28;20072;-79
2022/11/12 05:37:52;;;;;;;13.15;10.35;;;;;;;6.64;66.43;102973.94;5052098;28;20055;-79
2022/11/12 05:40:18;;;;;;;14.35;11.05;;;;;;;6.64;66.89;102974.84;5049257;28;20037;-79
2022/11/12 05:42:43;;;;;;;12.48;10.55;;;;;;;6.64;66.30;102971.19;5071855;28;20052;-79
2022/11/12 05:45:09;;;;;;;13.52;10.27;;;;;;;6.65;66.16;102978.47;5071305;28;20135;-79
2022/11/12 05:47:34;;;;;;;15.50;10.48;;;;;;;6.65;66.77;102978.47;5059342;28;20026;-79
2022/11/12 05:50:02;;;;;;;11.77;10.38;;;;;;;6.60;66.42;102973.47;5044318;28;20536;-79
2022/11/12 05:52:27;;;;;;;12.35;10.82;;;;;;;6.63;66.56;102980.50;5051037;28;20039;-79
2022/11/12 05:54:52;;;;;;;13.18;10.20;;;;;;;6.61;66.26;102974.31;5061685;28;20032;-79
2022/11/12 05:57:17;;;;;;;12.40;10.30;;;;;;;6.60;66.20;102973.47;5059207;28;20029;-79
2022/11/12 05:59:43;;;;;;;12.25;10.43;;;;;;;6.60;66.33;102980.84;5035013;28;20028;-79
2022/11/12 06:02:11;;;;;;;10.95;9.85;;;;;;;6.56;66.61;102972.09;5063360;28;20063;-76
2022/11/12 06:04:36;;;;;;;12.88;10.15;;;;;;;6.59;66.85;102973.63;5066441;28;20396;-80
2022/11/12 06:07:02;;;;;;;15.68;10.95;;;;;;;6.56;66.61;102979.47;5052646;28;20021;-80
2022/11/12 06:09:28;;;;;;;13.40;10.35;;;;;;;6.53;65.84;102974.34;5038412;28;20025;-74
2022/11/12 06:11:53;;;;;;;12.88;9.98;;;;;;;6.56;66.02;102974.84;5038790;28;20116;-74
2022/11/12 06:14:21;;;;;;;12.65;10.32;;;;;;;6.53;66.80;102974.34;5030366;28;20074;-74
2022/11/12 06:16:46;;;;;;;13.98;10.35;;;;;;;6.51;66.83;102974.50;5047666;28;20036;-79
2022/11/12 06:19:12;;;;;;;12.48;10.25;;;;;;;6.47;66.35;102981.41;5071896;28;20041;-78
2022/11/12 06:21:37;;;;;;;12.32;10.40;;;;;;;6.47;66.79;102978.63;5075094;28;20052;-78
2022/11/12 06:25:07;;;;;;;11.85;9.88;;;;;;;6.51;66.70;102977.25;5046579;28;20126;-73
2022/11/12 06:27:32;;;;;;;12.07;9.73;;;;;;;6.44;67.10;102984.50;5035433;28;20052;-80
2022/11/12 06:29:57;;;;;;;11.70;10.05;;;;;;;6.44;66.72;102981.75;5045842;28;20017;-78
2022/11/12 06:32:23;;;;;;;13.27;9.98;;;;;;;6.41;66.86;102982.13;5033762;28;20033;-78
2022/11/12 06:34:49;;;;;;;12.55;9.77;;;;;;;6.41;66.62;102984.88;5045129;28;20456;-75
2022/11/12 06:37:15;;;;;;;12.80;9.90;;;;;;;6.42;67.04;102986.59;5045109;28;20045;-79
2022/11/12 06:39:40;;;;;;;11.32;9.95;;;;;;;6.40;66.56;102985.88;5036055;28;20087;-75
2022/11/12 06:42:05;;;;;;;11.60;9.70;;;;;;;6.38;66.59;102986.06;5033712;28;20109;-74
2022/11/12 06:44:31;;;;;;;13.02;10.50;;;;;;;6.40;66.96;102991.41;5036489;28;20037;-79
2022/11/12 06:46:56;;;;;;;12.93;9.30;;;;;;;6.40;66.72;102985.88;5033148;28;20473;-78
2022/11/12 06:49:21;;;;;;;13.45;9.40;;;;;;;6.37;66.85;102997.28;5042871;28;20483;-77
2022/11/12 06:51:50;;;;;;;12.63;9.80;;;;;;;6.38;66.54;102994.34;5072219;28;20139;-77
2022/11/12 06:54:15;;;;;;;12.82;9.73;;;;;;;6.37;67.15;103000.91;5073899;28;20020;-77
2022/11/12 06:56:43;;;;;;;11.30;9.35;;;;;;;6.34;66.81;102992.97;5073215;28;20031;-77
2022/11/12 06:59:09;;;;;;;10.40;9.25;;;;;;;6.35;67.22;102999.34;5073900;28;20032;-75
2022/11/12 07:01:34;;;;;;;11.40;9.82;;;;;;;6.31;67.08;103004.34;5033601;28;20029;-76
2022/11/12 07:03:59;;;;;;;10.88;9.38;;;;;;;6.33;66.81;103001.44;5036913;28;20106;-77
2022/11/12 07:06:25;;;;;;;13.32;9.45;;;;;;;6.34;67.01;102998.47;5046458;28;20071;-77
2022/11/12 07:08:50;;;;;;;12.40;9.35;;;;;;;6.35;66.82;102996.59;5035941;28;20025;-77
2022/11/12 07:11:17;;;;;;;15.73;9.98;;;;;;;6.37;66.62;103003.66;5034127;28;20064;-77
2022/11/12 07:13:43;;;;;;;10.88;9.18;;;;;;;6.34;66.56;102995.72;5033849;28;20540;-77
2022/11/12 07:16:10;;;;;;;11.48;9.20;;;;;;;6.34;66.98;102992.97;5034423;28;20112;-77
2022/11/12 07:18:36;;;;;;;14.02;10.25;;;;;;;6.32;67.71;102999.69;5037372;28;20022;-77
2022/11/12 07:21:06;;;;;;;16.02;10.10;;;;;;;6.31;67.96;102997.97;5074008;28;20158;-77
2022/11/12 07:23:33;;;;;;;11.05;9.43;;;;;;;6.31;67.54;102996.06;5074305;28;20036;-77
2022/11/12 07:26:07;;;;;;;12.88;9.35;;;;;;;6.31;67.85;102998.81;5074123;28;20054;-77
2022/11/12 07:28:33;;;;;;;11.27;9.80;;;;;;;6.32;67.65;102996.91;5073078;28;20120;-77
2022/11/12 07:31:00;;;;;;;14.48;10.15;;;;;;;6.32;67.64;102997.78;5074286;28;20123;-77
2022/11/12 07:33:27;;;;;;;15.07;10.43;;;;;;;6.33;68.63;103002.28;5071074;28;20036;-77
2022/11/12 07:36:13;;;;;;;15.85;9.98;;;;;;;6.41;67.60;103006.94;5073334;28;20479;-75
2022/11/12 07:38:40;;;;;;;12.00;9.77;;;;;;;6.39;68.71;103012.59;5074828;28;20029;-77
2022/11/12 07:41:09;;;;;;;13.57;9.82;;;;;;;6.42;68.12;103011.41;5072819;28;20059;-77
2022/11/12 07:43:36;;;;;;;11.02;9.88;;;;;;;6.41;68.65;103014.34;5073078;28;20021;-77
2022/11/12 07:46:13;;;;;;;16.80;11.13;;;;;;;6.46;68.79;103015.56;5051664;28;20057;-77
2022/11/12 07:48:39;;;;;;;12.45;9.68;;;;;;;6.45;68.91;103019.34;5046520;28;20537;-77
2022/11/12 07:51:11;;;;;;;11.70;10.27;;;;;;;6.51;69.38;103013.13;5073281;28;20131;-77
2022/11/12 07:53:37;;;;;;;12.65;9.80;;;;;;;6.54;69.25;103015.53;5034371;28;20037;-77
2022/11/12 07:56:03;;;;;;;12.07;10.13;;;;;;;6.60;69.59;103014.84;5038805;28;20033;-77
2022/11/12 07:58:31;;;;;;;13.98;10.68;;;;;;;6.63;69.03;103014.47;5051578;28;20047;-77
2022/11/12 08:00:56;;;;;;;15.00;10.02;;;;;;;6.61;69.73;103021.25;5055928;28;20029;-77
2022/11/12 08:03:22;;;;;;;11.23;10.05;;;;;;;6.64;69.48;103024.50;5048981;28;20049;-77
2022/11/12 08:05:51;;;;;;;11.05;9.82;;;;;;;6.65;70.09;103022.63;5044384;28;20488;-78
2022/11/12 08:08:16;;;;;;;13.23;10.07;;;;;;;6.70;70.55;103024.84;5052771;28;20028;-78
2022/11/12 08:10:41;;;;;;;14.15;10.93;;;;;;;6.74;70.46;103026.22;5058165;28;20086;-79
2022/11/12 08:13:09;;;;;;;13.35;10.85;;;;;;;6.75;70.49;103031.56;5044716;28;20032;-79
2022/11/12 08:15:35;;;;;;;13.63;10.32;;;;;;;6.81;69.99;103032.75;5069936;28;20028;-79
2022/11/12 08:18:00;;;;;;;13.98;9.98;;;;;;;6.87;70.15;103026.53;5063987;28;20299;-80
2022/11/12 08:20:26;;;;;;;14.82;10.88;;;;;;;6.87;70.72;103032.06;5072142;28;20057;-79
2022/11/12 08:23:04;;;;;;;14.60;11.00;;;;;;;6.92;70.16;103039.78;5067975;28;20036;-79
2022/11/12 08:25:30;;;;;;;13.02;10.65;;;;;;;6.91;71.31;103038.94;5071138;28;20534;-79
2022/11/12 08:27:58;;;;;;;13.85;10.90;;;;;;;6.93;71.54;103039.66;5064121;28;20033;-78
2022/11/12 08:30:25;;;;;;;14.55;10.73;;;;;;;6.94;71.45;103041.34;5056930;28;20035;-78
2022/11/12 08:32:59;;;;;;;14.18;11.40;;;;;;;7.00;70.97;103040.66;5068547;28;20471;-79
2022/11/12 08:35:25;;;;;;;14.25;11.70;;;;;;;7.04;71.76;103036.50;5051836;28;20814;-78
2022/11/12 08:37:56;;;;;;;12.05;10.60;;;;;;;7.07;71.58;103044.44;5055515;28;20098;-79
2022/11/12 08:40:21;;;;;;;17.58;11.70;;;;;;;7.13;71.83;103038.22;5071715;28;20071;-78
2022/11/12 08:42:46;;;;;;;16.70;11.57;;;;;;;7.23;71.53;103040.78;5067323;28;20064;-79
2022/11/12 08:45:13;;;;;;;15.50;11.98;;;;;;;7.26;71.51;103032.13;5042945;28;20067;-78
2022/11/12 08:47:38;;;;;;;15.18;11.88;;;;;;;7.30;71.76;103041.78;5039620;28;20563;-77
2022/11/12 08:50:04;;;;;;;13.60;11.65;;;;;;;7.34;72.04;103042.28;5062363;28;20119;-77
2022/11/12 08:52:29;;;;;;;14.00;11.52;;;;;;;7.40;72.42;103044.34;5069673;28;20032;-76
2022/11/12 08:54:54;;;;;;;18.38;12.35;;;;;;;7.46;71.87;103037.22;5061695;28;20063;-78
2022/11/12 08:57:19;;;;;;;15.20;12.10;;;;;;;7.49;72.43;103045.16;5060720;28;20039;-75
2022/11/12 08:59:47;;;;;;;16.13;12.77;;;;;;;7.53;72.15;103035.47;5070476;28;20078;-77
2022/11/12 09:02:13;;;;;;;14.73;11.60;;;;;;;7.60;72.31;103042.00;5065883;28;20029;-80
2022/11/12 09:04:41;;;;;;;16.35;12.65;;;;;;;7.65;71.88;103036.78;5057142;28;20077;-73
2022/11/12 09:07:06;;;;;;;15.45;11.25;;;;;;;7.71;71.97;103035.22;5030219;28;20605;-77
2022/11/12 09:09:31;;;;;;;16.00;12.00;;;;;;;7.75;72.48;103033.81;5046546;28;20061;-76
2022/11/12 09:12:00;;;;;;;17.05;12.60;;;;;;;7.84;72.77;103036.34;5049278;28;20029;-76
2022/11/12 09:14:25;;;;;;;20.63;13.98;;;;;;;7.92;73.24;103043.72;5052448;28;20099;-76
2022/11/12 09:16:51;;;;;;;17.52;13.05;;;;;;;8.04;73.09;103039.50;5067055;28;20040;-76
2022/11/12 09:19:16;;;;;;;15.93;12.63;;;;;;;8.20;72.69;103040.44;5072734;28;20494;-76
2022/11/12 09:21:42;;;;;;;17.45;13.52;;;;;;;8.36;72.69;103035.63;5072964;28;20107;-75
2022/11/12 09:24:07;;;;;;;16.52;12.82;;;;;;;8.56;73.14;103035.16;5073790;28;20390;-75
2022/11/12 09:26:35;;;;;;;14.02;12.00;;;;;;;8.77;72.39;103029.78;5059999;28;20028;-75
2022/11/12 09:29:00;;;;;;;17.60;12.63;;;;;;;9.05;71.88;103038.31;5052286;28;20029;-76
2022/11/12 09:31:26;;;;;;;16.25;11.85;;;;;;;9.21;70.78;103040.06;5067442;28;20459;-76
2022/11/12 09:33:51;;;;;;;12.95;11.02;;;;;;;9.37;70.53;103033.47;5072051;28;20037;-77
2022/11/12 09:36:17;;;;;;;15.05;11.52;;;;;;;9.44;69.56;103028.88;5074268;28;20131;-77
2022/11/12 09:38:42;;;;;;;12.77;10.52;;;;;;;9.50;69.01;103035.53;5074903;28;20029;-75
2022/11/12 09:41:23;;;;;;;14.55;11.48;;;;;;;9.60;68.77;103033.34;5071281;28;20035;-75
2022/11/12 09:44:03;;;;;;;16.48;12.55;;;;;;;9.72;69.24;103031.78;5042633;28;20029;-75
2022/11/12 09:46:52;;;;;;;17.23;11.57;;;;;;;9.88;68.65;103029.84;5046635;28;20075;-75
2022/11/12 09:49:34;;;;;;;15.82;11.15;;;;;;;10.02;68.58;103032.59;5050355;28;20084;-75
2022/11/12 09:52:17;;;;;;;13.07;11.50;;;;;;;10.11;67.58;103036.09;5053611;28;20036;-75
2022/11/12 09:54:49;;;;;;;16.58;11.15;;;;;;;10.26;67.04;103033.28;5053628;28;20111;-75
2022/11/12 09:57:14;;;;;;;13.60;10.55;;;;;;;10.32;66.21;103033.34;5054596;28;20082;-75
2022/11/12 09:59:41;;;;;;;13.65;10.50;;;;;;;10.38;65.26;103036.41;5056201;28;20025;-75
2022/11/12 10:02:38;;;;;;;15.50;9.82;;;;;;;10.47;65.54;103035.19;5067738;28;20036;-75
2022/11/12 10:05:17;;;;;;;12.10;9.60;;;;;;;10.56;65.08;103034.84;5054150;28;20036;-75
2022/11/12 10:08:10;;;;;;;15.98;10.30;;;;;;;10.75;65.76;103027.75;5040558;28;20759;-69
2022/11/12 10:10:45;;;;;;;12.70;9.93;;;;;;;10.90;65.75;103030.44;5033149;28;20040;-61
2022/11/12 10:13:26;;;;;;;14.48;10.20;;;;;;;11.02;64.73;103026.03;5034116;28;20021;-78
2022/11/12 10:19:12;;;;;;;17.02;12.50;;;;;;;11.27;65.23;103017.19;5036577;28;20337;-79
2022/11/12 10:21:55;;;;;;;18.60;14.63;;;;;;;11.37;64.87;103019.63;5036017;28;20026;-74
2022/11/12 10:24:22;;;;;;;21.98;15.02;;;;;;;11.48;64.58;103022.69;5046883;28;20060;-75
2022/11/12 10:26:49;;;;;;;31.20;21.27;;;;;;;11.59;65.59;103012.88;5047901;28;20432;-75
2022/11/12 10:30:00;;;;;;;18.15;14.07;;;;;;;11.64;64.14;103015.06;5033480;28;20028;-72
2022/11/12 10:32:26;;;;;;;15.32;10.95;;;;;;;11.65;64.23;103025.09;5032747;28;20417;-71
2022/11/12 10:34:51;;;;;;;13.52;10.85;;;;;;;11.65;64.46;103016.75;5038725;28;20025;-70
2022/11/12 10:37:20;;;;;;;17.60;12.23;;;;;;;11.73;65.61;103014.66;5035254;28;20045;-73
2022/11/12 10:39:46;;;;;;;15.63;13.00;;;;;;;11.80;63.18;103014.69;5040667;28;20384;-71
2022/11/12 10:42:22;;;;;;;15.50;13.05;;;;;;;11.82;62.84;103009.75;5040368;28;20045;-69
2022/11/12 10:44:48;;;;;;;18.33;12.93;;;;;;;11.85;61.52;103005.75;5041880;28;20069;-70
2022/11/12 10:47:37;;;;;;;15.75;12.20;;;;;;;11.90;62.58;103006.81;5046142;28;20481;-69
2022/11/12 10:50:18;;;;;;;12.60;11.00;;;;;;;11.96;62.81;103008.78;5043082;28;20032;-71
2022/11/12 10:53:01;;;;;;;13.13;10.40;;;;;;;12.04;62.17;102999.38;5039346;28;20347;-71
2022/11/12 10:55:33;;;;;;;13.38;10.68;;;;;;;12.13;61.70;103003.66;5036943;28;20030;-71
2022/11/12 10:58:05;;;;;;;13.68;9.32;;;;;;;12.15;61.01;103009.88;5041940;28;20480;-72
2022/11/12 11:00:37;;;;;;;17.08;10.85;;;;;;;12.17;60.97;102999.38;5034956;28;20507;-74
2022/11/12 11:03:15;;;;;;;11.20;9.27;;;;;;;12.25;60.94;102987.19;5048661;28;20055;-73
2022/11/12 11:05:56;;;;;;;11.77;10.25;;;;;;;12.34;60.77;102985.06;5037616;28;20074;-73
2022/11/12 11:08:31;;;;;;;11.45;9.90;;;;;;;12.44;60.75;102989.13;5043589;28;20495;-76
2022/11/12 11:11:15;;;;;;;13.13;10.05;;;;;;;12.43;60.56;102975.44;5051418;28;20025;-74
2022/11/12 11:13:41;;;;;;;11.98;10.10;;;;;;;12.45;59.93;102990.00;5048992;28;20484;-75
2022/11/12 11:16:11;;;;;;;16.70;12.00;;;;;;;12.49;60.55;102994.91;5043442;28;20036;-72
2022/11/12 11:18:41;;;;;;;17.25;11.13;;;;;;;12.51;59.26;102983.56;5040479;28;20073;-75
2022/11/12 11:21:28;;;;;;;18.17;11.93;;;;;;;12.55;61.19;102984.88;5049416;28;20069;-79
2022/11/12 11:24:24;;;;;;;13.60;11.20;;;;;;;12.57;61.06;102990.19;5044247;28;20037;-76
2022/11/12 11:26:55;;;;;;;14.40;10.15;;;;;;;12.64;59.68;102979.91;5040813;28;20037;-79
2022/11/12 11:29:57;;;;;;;12.10;10.10;;;;;;;12.67;59.71;102973.94;5044267;28;20034;-72
2022/11/12 11:32:47;;;;;;;12.57;9.75;;;;;;;12.74;60.38;102969.22;5027950;28;20048;-76
2022/11/12 11:36:03;;;;;;;16.65;12.00;;;;;;;12.72;60.86;102968.56;5048600;28;20067;-78
2022/11/12 11:38:40;;;;;;;17.02;11.75;;;;;;;12.76;61.04;102969.84;5039462;28;21292;-76
2022/11/12 11:41:38;;;;;;;13.77;10.20;;;;;;;12.80;60.43;102973.91;5045835;28;20033;-76
2022/11/12 11:44:06;;;;;;;27.67;18.98;;;;;;;12.78;59.31;102970.50;5045379;28;20029;-76
2022/11/12 11:46:55;;;;;;;21.92;15.45;;;;;;;12.81;59.69;102960.81;5042454;28;20148;-76
2022/11/12 11:49:34;;;;;;;33.58;21.92;;;;;;;12.77;59.43;102954.81;5046136;28;20803;-81
2022/11/12 11:52:43;;;;;;;39.70;25.30;;;;;;;12.82;60.96;102951.41;5038101;28;20029;-77